Point Mugu NAWC, California
Current Conditions -  °F | °C
As of 8:56 AM on Friday 28 Nov 2014 (Local Time) from KNTD Reporting Station
Clear Clear  
Wind Chill: 62°   Ceiling: Unl
Heat Index: 62°   Visibility: 10mi
Dew Point: 36°   Wind: 3mph
Humidity: 38%   Direction: 10°N
Pressure: 30.01"   Gusts: NA
Location:  34.1°N, 119.06°W
Report Text: KNTD 281656Z 01003KT 10SM CLR 17/02 A3001 RMK AO2 SLP162 T01670022 $
Loading
Personal Weather Stations






























Interactive Weather Map New forecast layout! Learn more

10-Day Weather Forecast

Advertisements
Track Severe Weather on mobile